sensor_id;sensor_type;location;lat;lon;timestamp;pressure;altitude;pressure_sealevel;temperature;humidity
49943;BME280;36011;53.362;58.948;2024-02-23T00:01:32;98371.72;;;-21.35;36.20
49943;BME280;36011;53.362;58.948;2024-02-23T00:04:34;98368.13;;;-21.39;35.87
49943;BME280;36011;53.362;58.948;2024-02-23T00:07:42;98363.75;;;-21.41;36.22
49943;BME280;36011;53.362;58.948;2024-02-23T00:10:49;98362.88;;;-21.42;36.65
49943;BME280;36011;53.362;58.948;2024-02-23T00:13:52;98360.38;;;-21.42;36.40
49943;BME280;36011;53.362;58.948;2024-02-23T00:16:56;98362.63;;;-21.45;36.62
49943;BME280;36011;53.362;58.948;2024-02-23T00:20:03;98363.88;;;-21.50;35.89
49943;BME280;36011;53.362;58.948;2024-02-23T00:23:07;98363.72;;;-21.51;36.09
49943;BME280;36011;53.362;58.948;2024-02-23T00:26:11;98367.38;;;-21.48;36.53
49943;BME280;36011;53.362;58.948;2024-02-23T00:29:14;98355.38;;;-21.52;36.65
49943;BME280;36011;53.362;58.948;2024-02-23T00:32:16;98369.38;;;-21.44;36.45
49943;BME280;36011;53.362;58.948;2024-02-23T00:35:17;98368.13;;;-21.39;37.43
49943;BME280;36011;53.362;58.948;2024-02-23T00:38:24;98366.09;;;-21.33;36.98
49943;BME280;36011;53.362;58.948;2024-02-23T00:41:26;98362.97;;;-21.30;36.69
49943;BME280;36011;53.362;58.948;2024-02-23T00:44:28;98364.13;;;-21.37;36.49
49943;BME280;36011;53.362;58.948;2024-02-23T00:47:35;98369.88;;;-21.38;36.61
49943;BME280;36011;53.362;58.948;2024-02-23T00:50:44;98371.63;;;-21.37;36.79
49943;BME280;36011;53.362;58.948;2024-02-23T00:53:48;98370.09;;;-21.35;36.80
49943;BME280;36011;53.362;58.948;2024-02-23T00:56:52;98368.13;;;-21.39;36.49
49943;BME280;36011;53.362;58.948;2024-02-23T00:59:53;98370.84;;;-21.46;36.86
49943;BME280;36011;53.362;58.948;2024-02-23T01:02:57;98373.00;;;-21.50;37.02
49943;BME280;36011;53.362;58.948;2024-02-23T01:06:03;98366.84;;;-21.54;37.02
49943;BME280;36011;53.362;58.948;2024-02-23T01:09:05;98382.09;;;-21.51;37.10
49943;BME280;36011;53.362;58.948;2024-02-23T01:12:06;98372.38;;;-21.48;36.91
49943;BME280;36011;53.362;58.948;2024-02-23T01:15:08;98375.34;;;-21.52;36.73
49943;BME280;36011;53.362;58.948;2024-02-23T01:18:09;98371.59;;;-21.57;36.80
49943;BME280;36011;53.362;58.948;2024-02-23T01:21:13;98374.97;;;-21.67;36.88
49943;BME280;36011;53.362;58.948;2024-02-23T01:24:17;98384.84;;;-21.58;37.30
49943;BME280;36011;53.362;58.948;2024-02-23T01:27:18;98385.97;;;-21.55;36.98
49943;BME280;36011;53.362;58.948;2024-02-23T01:30:19;98393.84;;;-21.50;36.69
49943;BME280;36011;53.362;58.948;2024-02-23T01:33:25;98403.22;;;-21.47;37.10
49943;BME280;36011;53.362;58.948;2024-02-23T01:36:29;98391.84;;;-21.54;37.19
49943;BME280;36011;53.362;58.948;2024-02-23T01:39:30;98398.34;;;-21.56;37.02
49943;BME280;36011;53.362;58.948;2024-02-23T01:42:34;98396.06;;;-21.63;37.14
49943;BME280;36011;53.362;58.948;2024-02-23T01:45:35;98399.06;;;-21.67;36.85
49943;BME280;36011;53.362;58.948;2024-02-23T01:48:40;98385.69;;;-21.78;37.28
49943;BME280;36011;53.362;58.948;2024-02-23T01:51:46;98400.31;;;-21.72;37.25
49943;BME280;36011;53.362;58.948;2024-02-23T01:54:51;98404.94;;;-21.67;37.72
49943;BME280;36011;53.362;58.948;2024-02-23T01:57:56;98399.06;;;-21.67;37.58
49943;BME280;36011;53.362;58.948;2024-02-23T02:00:59;98392.31;;;-21.68;37.39
49943;BME280;36011;53.362;58.948;2024-02-23T02:04:07;98400.06;;;-21.76;37.11
49943;BME280;36011;53.362;58.948;2024-02-23T02:07:09;98384.94;;;-21.87;36.99
49943;BME280;36011;53.362;58.948;2024-02-23T02:10:12;98395.78;;;-21.87;37.63
49943;BME280;36011;53.362;58.948;2024-02-23T02:13:14;98397.78;;;-21.83;37.49
49943;BME280;36011;53.362;58.948;2024-02-23T02:16:15;98382.03;;;-21.92;37.65
49943;BME280;36011;53.362;58.948;2024-02-23T02:19:19;98396.28;;;-21.81;37.40
49943;BME280;36011;53.362;58.948;2024-02-23T02:22:20;98406.78;;;-21.85;37.50
49943;BME280;36011;53.362;58.948;2024-02-23T02:25:25;98414.75;;;-21.89;37.61
49943;BME280;36011;53.362;58.948;2024-02-23T02:28:28;98412.00;;;-21.92;37.53
49943;BME280;36011;53.362;58.948;2024-02-23T02:31:34;98410.50;;;-21.90;37.86
49943;BME280;36011;53.362;58.948;2024-02-23T02:34:38;98409.34;;;-21.93;37.64
49943;BME280;36011;53.362;58.948;2024-02-23T02:37:39;98405.22;;;-22.03;37.70
49943;BME280;36011;53.362;58.948;2024-02-23T02:40:48;98407.47;;;-22.06;37.82
49943;BME280;36011;53.362;58.948;2024-02-23T02:43:54;98412.72;;;-22.03;37.52
49943;BME280;36011;53.362;58.948;2024-02-23T02:46:58;98421.81;;;-22.04;37.74
49943;BME280;36011;53.362;58.948;2024-02-23T02:50:00;98432.41;;;-22.06;37.72
49943;BME280;36011;53.362;58.948;2024-02-23T02:53:06;98426.16;;;-22.11;38.29
49943;BME280;36011;53.362;58.948;2024-02-23T02:56:12;98433.28;;;-22.06;38.04
49943;BME280;36011;53.362;58.948;2024-02-23T02:59:16;98435.19;;;-22.03;37.80
49943;BME280;36011;53.362;58.948;2024-02-23T03:02:21;98431.41;;;-22.08;37.73
49943;BME280;36011;53.362;58.948;2024-02-23T03:05:31;98437.94;;;-22.00;38.15
49943;BME280;36011;53.362;58.948;2024-02-23T03:08:37;98443.31;;;-21.95;38.10
49943;BME280;36011;53.362;58.948;2024-02-23T03:11:41;98446.94;;;-21.92;37.84
49943;BME280;36011;53.362;58.948;2024-02-23T03:14:45;98450.47;;;-21.90;38.08
49943;BME280;36011;53.362;58.948;2024-02-23T03:17:46;98451.94;;;-21.92;38.00
49943;BME280;36011;53.362;58.948;2024-02-23T03:20:49;98446.09;;;-21.92;38.01
49943;BME280;36011;53.362;58.948;2024-02-23T03:23:53;98447.22;;;-21.89;37.89
49943;BME280;36011;53.362;58.948;2024-02-23T03:26:54;98447.47;;;-21.86;37.80
49943;BME280;36011;53.362;58.948;2024-02-23T03:29:56;98441.00;;;-21.84;38.34
49943;BME280;36011;53.362;58.948;2024-02-23T03:33:01;98444.25;;;-21.74;37.59
49943;BME280;36011;53.362;58.948;2024-02-23T03:36:03;98460.78;;;-21.66;37.58
49943;BME280;36011;53.362;58.948;2024-02-23T03:39:08;98464.78;;;-21.58;37.97
49943;BME280;36011;53.362;58.948;2024-02-23T03:42:09;98454.06;;;-21.47;37.94
49943;BME280;36011;53.362;58.948;2024-02-23T03:45:10;98463.56;;;-21.33;38.03
49943;BME280;36011;53.362;58.948;2024-02-23T03:48:16;98462.84;;;-21.21;37.73
49943;BME280;36011;53.362;58.948;2024-02-23T03:51:21;98463.84;;;-21.09;37.97
49943;BME280;36011;53.362;58.948;2024-02-23T03:54:27;98461.59;;;-20.96;37.44
49943;BME280;36011;53.362;58.948;2024-02-23T03:57:35;98460.34;;;-20.91;38.13
49943;BME280;36011;53.362;58.948;2024-02-23T04:00:36;98470.84;;;-20.64;37.64
49943;BME280;36011;53.362;58.948;2024-02-23T04:03:43;98466.56;;;-20.55;37.73
49943;BME280;36011;53.362;58.948;2024-02-23T04:06:52;98478.53;;;-20.41;37.91
49943;BME280;36011;53.362;58.948;2024-02-23T04:09:54;98478.75;;;-20.27;37.13
49943;BME280;36011;53.362;58.948;2024-02-23T04:12:58;98481.25;;;-20.17;37.44
49943;BME280;36011;53.362;58.948;2024-02-23T04:16:04;98478.59;;;-20.08;37.54
49943;BME280;36011;53.362;58.948;2024-02-23T04:19:06;98481.81;;;-19.99;37.27
49943;BME280;36011;53.362;58.948;2024-02-23T04:22:08;98486.69;;;-19.90;37.16
49943;BME280;36011;53.362;58.948;2024-02-23T04:25:10;98493.41;;;-19.79;37.31
49943;BME280;36011;53.362;58.948;2024-02-23T04:28:15;98491.84;;;-19.67;36.85
49943;BME280;36011;53.362;58.948;2024-02-23T04:31:16;98475.28;;;-19.65;37.21
49943;BME280;36011;53.362;58.948;2024-02-23T04:34:18;98488.06;;;-19.40;36.53
49943;BME280;36011;53.362;58.948;2024-02-23T04:37:21;98483.56;;;-19.22;36.90
49943;BME280;36011;53.362;58.948;2024-02-23T04:40:28;98488.25;;;-19.05;36.94
49943;BME280;36011;53.362;58.948;2024-02-23T04:43:32;98485.88;;;-18.91;37.95
49943;BME280;36011;53.362;58.948;2024-02-23T04:46:40;98483.53;;;-18.78;37.87
49943;BME280;36011;53.362;58.948;2024-02-23T04:49:49;98496.31;;;-18.51;37.98
49943;BME280;36011;53.362;58.948;2024-02-23T04:52:50;98499.63;;;-18.29;37.24
49943;BME280;36011;53.362;58.948;2024-02-23T04:55:52;98498.69;;;-18.07;36.85
49943;BME280;36011;53.362;58.948;2024-02-23T04:58:56;98491.50;;;-17.91;36.91
49943;BME280;36011;53.362;58.948;2024-02-23T05:02:00;98474.84;;;-17.77;37.02
49943;BME280;36011;53.362;58.948;2024-02-23T05:05:04;98499.91;;;-17.42;36.85
49943;BME280;36011;53.362;58.948;2024-02-23T05:08:08;98496.13;;;-17.24;36.95
49943;BME280;36011;53.362;58.948;2024-02-23T05:11:13;98484.75;;;-17.18;36.92
49943;BME280;36011;53.362;58.948;2024-02-23T05:14:22;98496.91;;;-16.88;37.22
49943;BME280;36011;53.362;58.948;2024-02-23T05:17:27;98504.13;;;-16.67;37.51
49943;BME280;36011;53.362;58.948;2024-02-23T05:20:30;98498.25;;;-16.55;36.87
49943;BME280;36011;53.362;58.948;2024-02-23T05:23:37;98512.06;;;-16.36;37.12
49943;BME280;36011;53.362;58.948;2024-02-23T05:26:44;98507.94;;;-16.22;36.64
49943;BME280;36011;53.362;58.948;2024-02-23T05:29:46;98510.47;;;-16.09;36.46
49943;BME280;36011;53.362;58.948;2024-02-23T05:32:52;98515.53;;;-15.82;37.34
49943;BME280;36011;53.362;58.948;2024-02-23T05:35:57;98522.59;;;-15.64;36.31
49943;BME280;36011;53.362;58.948;2024-02-23T05:39:01;98518.59;;;-15.33;36.05
49943;BME280;36011;53.362;58.948;2024-02-23T05:42:03;98513.88;;;-15.01;35.88
49943;BME280;36011;53.362;58.948;2024-02-23T05:45:06;98513.59;;;-12.81;35.17
49943;BME280;36011;53.362;58.948;2024-02-23T05:48:10;98517.31;;;-6.40;29.43
49943;BME280;36011;53.362;58.948;2024-02-23T05:51:15;98523.00;;;-0.49;23.96
49943;BME280;36011;53.362;58.948;2024-02-23T05:54:19;98528.19;;;4.25;21.12
49943;BME280;36011;53.362;58.948;2024-02-23T05:57:23;98526.69;;;7.97;19.00
49943;BME280;36011;53.362;58.948;2024-02-23T06:00:26;98528.53;;;10.83;16.55
49943;BME280;36011;53.362;58.948;2024-02-23T06:03:31;98519.38;;;12.93;15.73
49943;BME280;36011;53.362;58.948;2024-02-23T06:06:35;98521.41;;;14.60;14.53
49943;BME280;36011;53.362;58.948;2024-02-23T06:09:37;98512.81;;;15.94;13.41
49943;BME280;36011;53.362;58.948;2024-02-23T06:12:43;98524.78;;;16.88;11.78
49943;BME280;36011;53.362;58.948;2024-02-23T06:15:56;98515.88;;;17.68;12.17
49943;BME280;36011;53.362;58.948;2024-02-23T06:19:34;98528.53;;;19.29;9.93
49943;BME280;36011;53.362;58.948;2024-02-23T06:22:48;98521.59;;;19.27;11.41
49943;BME280;36011;53.362;58.948;2024-02-23T06:25:57;98524.00;;;19.78;10.57
49943;BME280;36011;53.362;58.948;2024-02-23T06:29:01;98526.22;;;20.53;10.23
49943;BME280;36011;53.362;58.948;2024-02-23T06:32:05;98524.38;;;20.88;9.68
49943;BME280;36011;53.362;58.948;2024-02-23T06:35:08;98516.59;;;21.28;9.31
49943;BME280;36011;53.362;58.948;2024-02-23T06:38:12;98515.28;;;21.66;9.04
49943;BME280;36011;53.362;58.948;2024-02-23T06:41:19;98513.19;;;22.32;8.30
49943;BME280;36011;53.362;58.948;2024-02-23T06:44:27;98521.31;;;22.82;8.29
49943;BME280;36011;53.362;58.948;2024-02-23T06:47:33;98518.63;;;23.33;7.80
49943;BME280;36011;53.362;58.948;2024-02-23T06:50:40;98523.19;;;23.71;7.72
49943;BME280;36011;53.362;58.948;2024-02-23T06:53:44;98523.41;;;24.26;7.20
49943;BME280;36011;53.362;58.948;2024-02-23T06:56:53;98520.16;;;24.70;7.13
49943;BME280;36011;53.362;58.948;2024-02-23T06:59:55;98515.09;;;25.12;7.12
49943;BME280;36011;53.362;58.948;2024-02-23T07:02:57;98516.94;;;25.57;6.65
49943;BME280;36011;53.362;58.948;2024-02-23T07:06:07;98523.25;;;26.02;6.64
49943;BME280;36011;53.362;58.948;2024-02-23T07:09:10;98521.97;;;26.40;6.45
49943;BME280;36011;53.362;58.948;2024-02-23T07:12:17;98528.44;;;26.73;5.90
49943;BME280;36011;53.362;58.948;2024-02-23T07:15:22;98509.97;;;27.11;5.98
49943;BME280;36011;53.362;58.948;2024-02-23T07:18:26;98511.59;;;27.30;6.21
49943;BME280;36011;53.362;58.948;2024-02-23T07:21:32;98514.16;;;27.56;5.88
49943;BME280;36011;53.362;58.948;2024-02-23T07:24:41;98514.34;;;27.71;5.63
49943;BME280;36011;53.362;58.948;2024-02-23T07:27:48;98517.91;;;28.04;5.86
49943;BME280;36011;53.362;58.948;2024-02-23T07:30:57;98523.47;;;28.27;5.30
49943;BME280;36011;53.362;58.948;2024-02-23T07:33:59;98522.44;;;28.45;5.58
49943;BME280;36011;53.362;58.948;2024-02-23T07:37:02;98525.34;;;28.18;5.64
49943;BME280;36011;53.362;58.948;2024-02-23T07:40:05;98523.00;;;28.07;5.64
49943;BME280;36011;53.362;58.948;2024-02-23T07:43:07;98521.25;;;28.39;5.55
49943;BME280;36011;53.362;58.948;2024-02-23T07:46:12;98526.75;;;28.78;5.29
49943;BME280;36011;53.362;58.948;2024-02-23T07:49:17;98527.16;;;28.98;5.37
49943;BME280;36011;53.362;58.948;2024-02-23T07:52:24;98525.44;;;29.14;5.18
49943;BME280;36011;53.362;58.948;2024-02-23T07:55:33;98523.56;;;29.45;5.19
49943;BME280;36011;53.362;58.948;2024-02-23T07:58:38;98524.31;;;29.85;4.93
49943;BME280;36011;53.362;58.948;2024-02-23T08:01:39;98527.25;;;29.98;4.87
49943;BME280;36011;53.362;58.948;2024-02-23T08:04:44;98520.59;;;30.24;4.91
49943;BME280;36011;53.362;58.948;2024-02-23T08:07:45;98518.59;;;30.18;4.68
49943;BME280;36011;53.362;58.948;2024-02-23T08:10:52;98515.50;;;29.83;4.77
49943;BME280;36011;53.362;58.948;2024-02-23T08:13:56;98520.38;;;29.88;4.53
49943;BME280;36011;53.362;58.948;2024-02-23T08:16:58;98516.19;;;30.00;4.57
49943;BME280;36011;53.362;58.948;2024-02-23T08:20:02;98519.94;;;30.22;4.48
49943;BME280;36011;53.362;58.948;2024-02-23T08:23:09;98523.16;;;30.40;4.70
49943;BME280;36011;53.362;58.948;2024-02-23T08:26:11;98528.22;;;30.43;4.25
49943;BME280;36011;53.362;58.948;2024-02-23T08:29:21;98522.03;;;30.50;4.55
49943;BME280;36011;53.362;58.948;2024-02-23T08:32:28;98518.09;;;30.67;4.50
49943;BME280;36011;53.362;58.948;2024-02-23T08:35:32;98521.03;;;30.80;4.60
49943;BME280;36011;53.362;58.948;2024-02-23T08:38:40;98526.91;;;30.99;4.12
49943;BME280;36011;53.362;58.948;2024-02-23T08:41:44;98520.19;;;30.95;4.35
49943;BME280;36011;53.362;58.948;2024-02-23T08:44:45;98520.22;;;30.27;4.15
49943;BME280;36011;53.362;58.948;2024-02-23T08:47:50;98527.91;;;30.01;4.21
49943;BME280;36011;53.362;58.948;2024-02-23T08:50:54;98526.84;;;29.64;4.56
49943;BME280;36011;53.362;58.948;2024-02-23T08:53:58;98532.50;;;29.23;4.46
49943;BME280;36011;53.362;58.948;2024-02-23T08:57:07;98529.78;;;28.83;4.69
49943;BME280;36011;53.362;58.948;2024-02-23T09:00:11;98528.06;;;28.18;4.71
49943;BME280;36011;53.362;58.948;2024-02-23T09:03:15;98525.19;;;27.95;4.79
49943;BME280;36011;53.362;58.948;2024-02-23T09:06:19;98529.44;;;27.98;4.68
49943;BME280;36011;53.362;58.948;2024-02-23T09:09:24;98514.34;;;27.46;4.70
49943;BME280;36011;53.362;58.948;2024-02-23T09:12:26;98520.91;;;27.68;4.91
49943;BME280;36011;53.362;58.948;2024-02-23T09:15:33;98509.75;;;27.47;4.65
49943;BME280;36011;53.362;58.948;2024-02-23T09:18:35;98510.81;;;26.95;5.01
49943;BME280;36011;53.362;58.948;2024-02-23T09:21:39;98511.44;;;26.55;5.14
49943;BME280;36011;53.362;58.948;2024-02-23T09:24:44;98522.78;;;26.93;4.83
49943;BME280;36011;53.362;58.948;2024-02-23T09:27:48;98522.38;;;26.79;4.81
49943;BME280;36011;53.362;58.948;2024-02-23T09:30:55;98509.16;;;26.68;4.87
49943;BME280;36011;53.362;58.948;2024-02-23T09:34:00;98504.59;;;25.54;5.46
49943;BME280;36011;53.362;58.948;2024-02-23T09:37:04;98502.38;;;25.04;5.49
49943;BME280;36011;53.362;58.948;2024-02-23T09:40:09;98501.09;;;24.81;5.56
49943;BME280;36011;53.362;58.948;2024-02-23T09:43:14;98506.78;;;24.40;5.67
49943;BME280;36011;53.362;58.948;2024-02-23T09:46:20;98503.16;;;24.69;5.61
49943;BME280;36011;53.362;58.948;2024-02-23T09:49:23;98514.56;;;25.08;5.43
49943;BME280;36011;53.362;58.948;2024-02-23T09:52:27;98514.59;;;25.44;5.29
49943;BME280;36011;53.362;58.948;2024-02-23T09:55:34;98520.84;;;24.72;5.21
49943;BME280;36011;53.362;58.948;2024-02-23T09:58:42;98514.72;;;23.75;5.80
49943;BME280;36011;53.362;58.948;2024-02-23T10:01:45;98520.47;;;23.51;5.58
49943;BME280;36011;53.362;58.948;2024-02-23T10:04:51;98517.34;;;22.86;5.77
49943;BME280;36011;53.362;58.948;2024-02-23T10:07:57;98508.81;;;22.10;6.10
49943;BME280;36011;53.362;58.948;2024-02-23T10:11:08;98523.50;;;22.16;5.94
49943;BME280;36011;53.362;58.948;2024-02-23T10:14:15;98519.00;;;22.16;5.89
49943;BME280;36011;53.362;58.948;2024-02-23T10:17:23;98521.44;;;22.40;5.90
49943;BME280;36011;53.362;58.948;2024-02-23T10:20:27;98522.69;;;22.36;6.00
49943;BME280;36011;53.362;58.948;2024-02-23T10:23:35;98525.53;;;22.45;5.74
49943;BME280;36011;53.362;58.948;2024-02-23T10:26:39;98533.84;;;21.58;6.12
49943;BME280;36011;53.362;58.948;2024-02-23T10:29:41;98523.31;;;20.68;6.43
49943;BME280;36011;53.362;58.948;2024-02-23T10:32:47;98533.00;;;20.46;6.47
49943;BME280;36011;53.362;58.948;2024-02-23T10:35:58;98524.97;;;20.35;6.28
49943;BME280;36011;53.362;58.948;2024-02-23T10:39:05;98528.97;;;20.40;6.18
49943;BME280;36011;53.362;58.948;2024-02-23T10:42:09;98530.19;;;20.14;6.53
49943;BME280;36011;53.362;58.948;2024-02-23T10:45:16;98528.41;;;19.55;6.63
49943;BME280;36011;53.362;58.948;2024-02-23T10:48:20;98525.91;;;19.41;6.59
49943;BME280;36011;53.362;58.948;2024-02-23T10:51:27;98525.78;;;19.18;6.79
49943;BME280;36011;53.362;58.948;2024-02-23T10:54:33;98526.81;;;18.55;7.02
49943;BME280;36011;53.362;58.948;2024-02-23T10:57:37;98525.78;;;18.06;7.00
49943;BME280;36011;53.362;58.948;2024-02-23T11:00:42;98523.78;;;17.70;7.42
49943;BME280;36011;53.362;58.948;2024-02-23T11:03:49;98517.25;;;17.21;7.47
49943;BME280;36011;53.362;58.948;2024-02-23T11:06:55;98514.03;;;15.75;7.79
49943;BME280;36011;53.362;58.948;2024-02-23T11:09:59;98518.69;;;14.77;8.24
49943;BME280;36011;53.362;58.948;2024-02-23T11:13:10;98516.38;;;13.72;8.68
49943;BME280;36011;53.362;58.948;2024-02-23T11:16:22;98517.88;;;12.87;8.87
49943;BME280;36011;53.362;58.948;2024-02-23T11:19:39;98519.50;;;12.14;9.15
49943;BME280;36011;53.362;58.948;2024-02-23T11:22:43;98521.44;;;12.10;9.02
49943;BME280;36011;53.362;58.948;2024-02-23T11:29:13;98518.75;;;9.67;9.84
49943;BME280;36011;53.362;58.948;2024-02-23T11:32:18;98526.94;;;9.33;10.27
49943;BME280;36011;53.362;58.948;2024-02-23T11:35:19;98518.00;;;9.88;9.96
49943;BME280;36011;53.362;58.948;2024-02-23T11:38:23;98505.69;;;9.40;10.14
49943;BME280;36011;53.362;58.948;2024-02-23T11:41:26;98528.81;;;9.29;10.32
49943;BME280;36011;53.362;58.948;2024-02-23T11:44:30;98530.78;;;9.49;10.48
49943;BME280;36011;53.362;58.948;2024-02-23T11:47:38;98512.75;;;9.38;10.33
49943;BME280;36011;53.362;58.948;2024-02-23T11:50:42;98528.78;;;8.76;10.68
49943;BME280;36011;53.362;58.948;2024-02-23T11:53:47;98538.31;;;7.88;11.50
49943;BME280;36011;53.362;58.948;2024-02-23T11:56:51;98533.81;;;7.26;11.56
49943;BME280;36011;53.362;58.948;2024-02-23T11:59:55;98538.94;;;6.95;11.72
49943;BME280;36011;53.362;58.948;2024-02-23T12:02:57;98537.16;;;6.57;11.99
49943;BME280;36011;53.362;58.948;2024-02-23T12:05:59;98541.28;;;6.68;12.24
49943;BME280;36011;53.362;58.948;2024-02-23T12:09:04;98531.31;;;6.84;12.26
49943;BME280;36011;53.362;58.948;2024-02-23T12:12:06;98548.41;;;6.99;12.00
49943;BME280;36011;53.362;58.948;2024-02-23T12:15:10;98547.31;;;6.72;12.50
49943;BME280;36011;53.362;58.948;2024-02-23T12:18:13;98538.06;;;6.57;12.64
49943;BME280;36011;53.362;58.948;2024-02-23T12:21:22;98543.22;;;6.18;12.90
49943;BME280;36011;53.362;58.948;2024-02-23T12:24:25;98539.31;;;5.96;12.86
49943;BME280;36011;53.362;58.948;2024-02-23T12:27:31;98548.25;;;5.34;13.49
49943;BME280;36011;53.362;58.948;2024-02-23T12:30:32;98557.41;;;5.06;14.11
49943;BME280;36011;53.362;58.948;2024-02-23T12:33:38;98553.38;;;4.21;13.84
49943;BME280;36011;53.362;58.948;2024-02-23T12:36:46;98562.22;;;3.25;14.60
49943;BME280;36011;53.362;58.948;2024-02-23T12:39:51;98544.69;;;2.30;15.13
49943;BME280;36011;53.362;58.948;2024-02-23T12:42:55;98561.44;;;1.06;15.96
49943;BME280;36011;53.362;58.948;2024-02-23T12:45:59;98554.84;;;-0.60;17.82
49943;BME280;36011;53.362;58.948;2024-02-23T12:49:03;98565.38;;;-1.44;18.21
49943;BME280;36011;53.362;58.948;2024-02-23T12:52:05;98557.59;;;-1.46;18.23
49943;BME280;36011;53.362;58.948;2024-02-23T12:55:08;98565.38;;;-1.40;18.34
49943;BME280;36011;53.362;58.948;2024-02-23T12:58:11;98562.59;;;-1.60;17.95
49943;BME280;36011;53.362;58.948;2024-02-23T13:01:16;98573.75;;;-2.32;18.38
49943;BME280;36011;53.362;58.948;2024-02-23T13:04:17;98569.66;;;-3.32;19.32
49943;BME280;36011;53.362;58.948;2024-02-23T13:07:22;98574.78;;;-4.23;20.34
49943;BME280;36011;53.362;58.948;2024-02-23T13:10:32;98587.38;;;-5.11;21.32
49943;BME280;36011;53.362;58.948;2024-02-23T13:13:35;98582.91;;;-5.84;21.48
49943;BME280;36011;53.362;58.948;2024-02-23T13:16:37;98595.16;;;-6.35;21.77
49943;BME280;36011;53.362;58.948;2024-02-23T13:19:42;98591.16;;;-6.82;22.23
49943;BME280;36011;53.362;58.948;2024-02-23T13:22:46;98601.38;;;-7.36;22.51
49943;BME280;36011;53.362;58.948;2024-02-23T13:25:50;98605.88;;;-7.79;23.42
49943;BME280;36011;53.362;58.948;2024-02-23T13:28:57;98601.31;;;-8.11;23.65
49943;BME280;36011;53.362;58.948;2024-02-23T13:32:03;98614.72;;;-8.41;23.60
49943;BME280;36011;53.362;58.948;2024-02-23T13:35:09;98616.38;;;-8.66;23.60
49943;BME280;36011;53.362;58.948;2024-02-23T13:38:13;98615.63;;;-8.84;23.77
49943;BME280;36011;53.362;58.948;2024-02-23T13:41:15;98621.03;;;-8.97;24.02
49943;BME280;36011;53.362;58.948;2024-02-23T13:44:18;98628.78;;;-9.17;25.01
49943;BME280;36011;53.362;58.948;2024-02-23T13:47:22;98631.19;;;-9.41;25.26
49943;BME280;36011;53.362;58.948;2024-02-23T13:50:27;98635.31;;;-9.64;25.11
49943;BME280;36011;53.362;58.948;2024-02-23T13:53:29;98649.66;;;-9.85;25.50
49943;BME280;36011;53.362;58.948;2024-02-23T13:56:37;98648.75;;;-10.07;25.81
49943;BME280;36011;53.362;58.948;2024-02-23T13:59:41;98650.34;;;-10.28;25.91
49943;BME280;36011;53.362;58.948;2024-02-23T14:02:48;98639.34;;;-10.47;25.96
49943;BME280;36011;53.362;58.948;2024-02-23T14:05:53;98640.25;;;-10.64;26.15
49943;BME280;36011;53.362;58.948;2024-02-23T14:08:54;98611.75;;;-10.93;26.26
49943;BME280;36011;53.362;58.948;2024-02-23T14:12:00;98649.13;;;-10.92;26.21
49943;BME280;36011;53.362;58.948;2024-02-23T14:15:04;98658.84;;;-11.01;27.30
49943;BME280;36011;53.362;58.948;2024-02-23T14:18:09;98646.06;;;-11.20;26.75
49943;BME280;36011;53.362;58.948;2024-02-23T14:21:10;98669.69;;;-11.21;26.87
49943;BME280;36011;53.362;58.948;2024-02-23T14:24:16;98662.28;;;-11.35;27.27
49943;BME280;36011;53.362;58.948;2024-02-23T14:27:20;98666.97;;;-11.42;27.65
49943;BME280;36011;53.362;58.948;2024-02-23T14:30:22;98656.03;;;-11.58;27.96
49943;BME280;36011;53.362;58.948;2024-02-23T14:33:26;98670.91;;;-11.65;27.67
49943;BME280;36011;53.362;58.948;2024-02-23T14:36:31;98666.00;;;-11.79;28.12
49943;BME280;36011;53.362;58.948;2024-02-23T14:39:37;98663.03;;;-11.88;28.29
49943;BME280;36011;53.362;58.948;2024-02-23T14:42:41;98667.63;;;-11.97;28.32
49943;BME280;36011;53.362;58.948;2024-02-23T14:45:42;98672.38;;;-12.03;28.61
49943;BME280;36011;53.362;58.948;2024-02-23T14:48:49;98673.31;;;-12.17;28.58
49943;BME280;36011;53.362;58.948;2024-02-23T14:51:54;98667.44;;;-12.33;29.16
49943;BME280;36011;53.362;58.948;2024-02-23T14:54:59;98674.41;;;-12.45;29.33
49943;BME280;36011;53.362;58.948;2024-02-23T14:58:04;98680.88;;;-12.50;29.27
49943;BME280;36011;53.362;58.948;2024-02-23T15:01:11;98686.38;;;-12.57;29.48
49943;BME280;36011;53.362;58.948;2024-02-23T15:04:13;98694.78;;;-12.58;29.84
49943;BME280;36011;53.362;58.948;2024-02-23T15:07:21;98702.13;;;-12.63;30.17
49943;BME280;36011;53.362;58.948;2024-02-23T15:10:24;98698.41;;;-12.70;29.92
49943;BME280;36011;53.362;58.948;2024-02-23T15:13:26;98703.22;;;-12.74;30.40
49943;BME280;36011;53.362;58.948;2024-02-23T15:16:30;98697.00;;;-12.79;30.28
49943;BME280;36011;53.362;58.948;2024-02-23T15:19:39;98698.34;;;-12.86;31.11
49943;BME280;36011;53.362;58.948;2024-02-23T15:22:43;98699.41;;;-12.97;30.29
49943;BME280;36011;53.362;58.948;2024-02-23T15:25:51;98703.59;;;-13.13;31.12
49943;BME280;36011;53.362;58.948;2024-02-23T15:28:52;98714.66;;;-13.27;30.89
49943;BME280;36011;53.362;58.948;2024-02-23T15:31:57;98704.41;;;-13.43;31.34
49943;BME280;36011;53.362;58.948;2024-02-23T15:35:02;98706.25;;;-13.55;30.90
49943;BME280;36011;53.362;58.948;2024-02-23T15:38:09;98715.44;;;-13.71;31.10
49943;BME280;36011;53.362;58.948;2024-02-23T15:41:11;98715.22;;;-13.89;31.46
49943;BME280;36011;53.362;58.948;2024-02-23T15:44:19;98718.66;;;-14.02;31.77
49943;BME280;36011;53.362;58.948;2024-02-23T15:47:21;98709.75;;;-14.10;31.81
49943;BME280;36011;53.362;58.948;2024-02-23T15:50:28;98713.50;;;-14.18;31.73
49943;BME280;36011;53.362;58.948;2024-02-23T15:53:32;98718.06;;;-14.26;31.90
49943;BME280;36011;53.362;58.948;2024-02-23T15:56:36;98722.75;;;-14.32;31.72
49943;BME280;36011;53.362;58.948;2024-02-23T15:59:43;98715.75;;;-14.36;31.94
49943;BME280;36011;53.362;58.948;2024-02-23T16:02:47;98699.81;;;-14.48;31.97
49943;BME280;36011;53.362;58.948;2024-02-23T16:05:50;98710.63;;;-14.51;32.28